createdAt,value
2023-01-29T00:02:58.843Z,6.6
2023-01-29T00:08:35.679Z,6.6
2023-01-29T00:14:47.816Z,6.6
2023-01-29T00:20:27.560Z,6.6
2023-01-29T00:26:07.571Z,6.6
2023-01-29T00:31:42.844Z,6.5
2023-01-29T00:37:43.774Z,6.5
2023-01-29T00:43:18.830Z,6.6
2023-01-29T00:48:56.885Z,6.6
2023-01-29T00:54:43.127Z,6.6
2023-01-29T01:00:28.133Z,6.5
2023-01-29T01:06:13.466Z,6.6
2023-01-29T01:11:48.931Z,6.5
2023-01-29T01:17:25.243Z,6.5
2023-01-29T01:23:01.092Z,6.5
2023-01-29T01:28:37.736Z,6.5
2023-01-29T01:34:38.965Z,6.5
2023-01-29T01:40:14.570Z,6.6
2023-01-29T01:46:17.281Z,6.5
2023-01-29T01:52:00.240Z,6.5
2023-01-29T01:57:44.945Z,6.5
2023-01-29T02:03:24.287Z,6.5
2023-01-29T02:09:20.038Z,6.5
2023-01-29T02:14:55.202Z,6.5
2023-01-29T02:20:32.950Z,6.5
2023-01-29T02:26:09.211Z,6.6
2023-01-29T02:31:47.047Z,6.6
2023-01-29T02:37:22.611Z,6.6
2023-01-29T02:42:59.223Z,6.5
2023-01-29T02:48:36.493Z,6.5
2023-01-29T02:54:19.816Z,6.5
2023-01-29T02:59:59.500Z,6.6
2023-01-29T03:05:39.901Z,6.6
2023-01-29T03:12:38.614Z,6.5
2023-01-29T03:18:23.426Z,6.6
2023-01-29T03:24:25.714Z,6.6
2023-01-29T03:30:02.532Z,6.6
2023-01-29T03:37:01.250Z,6.6
2023-01-29T03:42:42.698Z,6.6
2023-01-29T03:48:19.997Z,6.6
2023-01-29T03:53:58.978Z,6.6
2023-01-29T04:00:00.939Z,6.6
2023-01-29T04:05:44.090Z,6.6
2023-01-29T04:11:19.407Z,6.6
2023-01-29T04:16:55.289Z,6.7
2023-01-29T04:22:47.331Z,6.7
2023-01-29T04:28:29.648Z,6.7
2023-01-29T04:34:07.685Z,6.7
2023-01-29T04:39:45.647Z,6.7
2023-01-29T04:45:22.784Z,6.7
2023-01-29T04:50:58.007Z,6.7
2023-01-29T04:56:55.175Z,6.7
2023-01-29T05:02:38.073Z,6.6
2023-01-29T05:08:35.799Z,6.7
2023-01-29T05:14:14.849Z,6.6
2023-01-29T05:19:50.804Z,6.6
2023-01-29T05:25:28.349Z,6.6
2023-01-29T05:31:17.696Z,6.6
2023-01-29T05:37:02.967Z,6.7
2023-01-29T05:42:51.034Z,6.7
2023-01-29T05:48:29.030Z,6.7
2023-01-29T05:54:21.637Z,6.7
2023-01-29T06:00:21.487Z,6.7
2023-01-29T06:05:59.234Z,6.6
2023-01-29T06:11:53.216Z,6.7
2023-01-29T06:17:40.697Z,6.7
2023-01-29T06:23:18.628Z,6.7
2023-01-29T06:29:01.606Z,6.6
2023-01-29T06:34:42.243Z,6.7
2023-01-29T06:40:17.982Z,6.7
2023-01-29T06:45:54.337Z,6.7
2023-01-29T06:51:31.244Z,6.7
2023-01-29T06:57:06.757Z,6.7
2023-01-29T07:02:50.845Z,6.6
2023-01-29T07:08:31.160Z,6.7
2023-01-29T07:14:17.479Z,6.7
2023-01-29T07:20:01.705Z,6.6
2023-01-29T07:25:36.867Z,6.6
2023-01-29T07:31:15.011Z,6.6
2023-01-29T07:36:52.077Z,6.6
2023-01-29T07:42:27.392Z,6.6
2023-01-29T07:48:24.385Z,6.6
2023-01-29T07:54:08.478Z,5
2023-01-29T07:59:43.537Z,4.6
2023-01-29T08:05:18.704Z,4.4
2023-01-29T08:10:53.614Z,4.5
2023-01-29T08:16:29.387Z,4.5
2023-01-29T08:22:05.769Z,4.6
2023-01-29T08:27:42.206Z,4.7
2023-01-29T08:33:38.903Z,4.8
2023-01-29T08:39:35.535Z,4.8
2023-01-29T08:45:11.294Z,4.9
2023-01-29T08:50:47.395Z,4.8
2023-01-29T08:56:22.280Z,4.9
2023-01-29T09:02:01.001Z,5.1
2023-01-29T09:07:36.820Z,4.9
2023-01-29T09:13:33.085Z,5.1
2023-01-29T09:19:16.986Z,5.2
2023-01-29T09:24:52.348Z,5.5
2023-01-29T09:30:27.650Z,5.6
2023-01-29T09:36:03.873Z,5.8
2023-01-29T09:41:41.891Z,6
2023-01-29T09:47:16.865Z,5.9
2023-01-29T09:52:55.373Z,6.2
2023-01-29T09:58:41.837Z,6.5
2023-01-29T10:04:21.361Z,6.8
2023-01-29T10:09:58.233Z,6.5
2023-01-29T10:15:33.269Z,6.4
2023-01-29T10:21:09.214Z,6.4
2023-01-29T10:26:47.361Z,6.1
2023-01-29T10:32:23.399Z,6.2
2023-01-29T10:37:59.502Z,6.4
2023-01-29T10:43:43.076Z,7.2
2023-01-29T10:49:36.674Z,6.7
2023-01-29T10:55:11.782Z,6.9
2023-01-29T11:01:04.136Z,6.8
2023-01-29T11:06:39.561Z,7.4
2023-01-29T11:12:43.587Z,7.1
2023-01-29T11:18:19.126Z,7.1
2023-01-29T11:23:55.177Z,7.3
2023-01-29T11:29:30.350Z,7.3
2023-01-29T11:35:08.046Z,7.5
2023-01-29T11:40:44.403Z,7.6
2023-01-29T11:46:19.418Z,7.2
2023-01-29T11:52:06.729Z,7.3
2023-01-29T11:57:43.297Z,6.9
2023-01-29T12:03:33.050Z,6.9
2023-01-29T12:09:24.086Z,6.5
2023-01-29T12:15:01.828Z,6.3
2023-01-29T12:20:37.268Z,6.3
2023-01-29T12:26:13.573Z,6.5
2023-01-29T12:31:49.410Z,6.5
2023-01-29T12:37:24.641Z,6.5
2023-01-29T12:43:10.863Z,6.4
2023-01-29T12:49:06.809Z,6.7
2023-01-29T12:54:41.801Z,6.5
2023-01-29T13:00:17.543Z,6.3
2023-01-29T13:05:55.535Z,6.2
2023-01-29T13:11:33.499Z,6.4
2023-01-29T13:17:11.559Z,6.3
2023-01-29T13:23:14.815Z,6.1
2023-01-29T13:28:53.175Z,6.6
2023-01-29T13:34:32.374Z,6.2
2023-01-29T13:40:07.364Z,6
2023-01-29T13:45:44.887Z,5.8
2023-01-29T13:51:35.875Z,5.8
2023-01-29T13:57:29.536Z,5.9
2023-01-29T14:03:07.513Z,5.7
2023-01-29T14:08:44.858Z,5.8
2023-01-29T14:14:19.930Z,5.8
2023-01-29T14:19:55.165Z,5.6
2023-01-29T14:25:35.831Z,5.7
2023-01-29T14:31:32.281Z,5.7
2023-01-29T14:37:15.057Z,5.9
2023-01-29T14:42:51.011Z,5.7
2023-01-29T14:48:26.944Z,5.8
2023-01-29T14:54:05.209Z,5.8
2023-01-29T15:00:00.795Z,5.8
2023-01-29T15:05:46.739Z,5.9
2023-01-29T15:11:34.671Z,5.9
2023-01-29T15:17:11.498Z,5.7
2023-01-29T15:22:58.025Z,5.9
2023-01-29T15:28:39.731Z,5.9
2023-01-29T15:34:32.918Z,5.8
2023-01-29T15:40:08.124Z,5.8
2023-01-29T15:45:47.075Z,5.6
2023-01-29T15:51:22.658Z,5.6
2023-01-29T15:57:02.234Z,5.6
2023-01-29T16:02:45.433Z,5.6
2023-01-29T16:08:30.165Z,5.5
2023-01-29T16:14:16.093Z,5.4
2023-01-29T16:19:54.904Z,5.4
2023-01-29T16:25:35.158Z,5.3
2023-01-29T16:31:26.538Z,5.2
2023-01-29T16:37:03.584Z,5.2
2023-01-29T16:42:41.578Z,5.1
2023-01-29T16:48:17.535Z,4.9
2023-01-29T16:54:13.541Z,4.7
2023-01-29T16:59:53.529Z,4.6
2023-01-29T17:05:33.797Z,4.6
2023-01-29T17:11:12.363Z,4.6
2023-01-29T17:16:47.574Z,4.6
2023-01-29T17:22:31.139Z,4.4
2023-01-29T17:28:06.615Z,4.4
2023-01-29T17:33:45.595Z,4.5
2023-01-29T17:39:22.525Z,4.6
2023-01-29T17:44:58.064Z,4.5
2023-01-29T17:50:38.583Z,5.3
2023-01-29T17:56:17.891Z,5.9
2023-01-29T18:01:55.578Z,6.2
2023-01-29T18:07:31.894Z,6.3
2023-01-29T18:13:16.617Z,6.4
2023-01-29T18:19:03.113Z,6.4
2023-01-29T18:24:51.062Z,6.5
2023-01-29T18:30:28.318Z,6.5
2023-01-29T18:36:04.449Z,6.6
2023-01-29T18:41:53.252Z,6.6
2023-01-29T18:47:32.702Z,6.7
2023-01-29T18:53:41.267Z,6.8
2023-01-29T18:59:22.350Z,6.8
2023-01-29T19:05:33.767Z,6.8
2023-01-29T19:11:39.330Z,6.8
2023-01-29T19:17:20.727Z,6.8
2023-01-29T19:23:02.431Z,6.9
2023-01-29T19:28:42.625Z,6.9
2023-01-29T19:34:45.902Z,6.9
2023-01-29T19:40:23.041Z,6.9
2023-01-29T19:46:00.442Z,6.9
2023-01-29T19:51:36.165Z,6.9
2023-01-29T19:57:11.870Z,6.9
2023-01-29T20:02:53.093Z,6.9
2023-01-29T20:08:39.750Z,6.9
2023-01-29T20:14:26.563Z,6.9
2023-01-29T20:20:33.706Z,6.9
2023-01-29T20:26:12.340Z,6.9
2023-01-29T20:32:04.624Z,6.9
2023-01-29T20:37:49.248Z,6.9
2023-01-29T20:43:48.765Z,6.9
2023-01-29T20:49:51.136Z,6.9
2023-01-29T20:55:23.869Z,6.9
2023-01-29T21:01:02.379Z,6.9
2023-01-29T21:06:38.656Z,6.9
2023-01-29T21:12:19.076Z,6.9
2023-01-29T21:18:00.976Z,6.9
2023-01-29T21:24:15.787Z,6.9
2023-01-29T21:30:13.407Z,6.9
2023-01-29T21:35:56.389Z,7
2023-01-29T21:41:49.947Z,7
2023-01-29T21:48:04.743Z,7
2023-01-29T21:53:48.667Z,7
2023-01-29T21:59:27.824Z,6.9
2023-01-29T22:05:17.941Z,6.9
2023-01-29T22:10:59.446Z,6.9
2023-01-29T22:16:36.915Z,6.9
2023-01-29T22:22:16.515Z,6.9
2023-01-29T22:27:51.853Z,6.9
2023-01-29T22:33:29.931Z,7
2023-01-29T22:39:07.448Z,7
2023-01-29T22:45:03.130Z,7
2023-01-29T22:50:38.609Z,6.9
2023-01-29T22:56:28.141Z,6.9
2023-01-29T23:03:13.385Z,6.9
2023-01-29T23:08:57.473Z,6.9
2023-01-29T23:15:22.235Z,6.9
2023-01-29T23:21:07.385Z,6.9
2023-01-29T23:26:45.490Z,6.9
2023-01-29T23:32:22.012Z,6.9
2023-01-29T23:38:01.030Z,7
2023-01-29T23:43:45.315Z,7
2023-01-29T23:49:27.119Z,7
2023-01-29T23:55:15.806Z,7
